Time;durP1;ratioP1;P1;durP2;ratioP2;P2;SDS_P1;SDS_P2;PMS_P1;PMS_P2;Temp;Humidity;BMP_temperature;BMP_pressure;BME280_temperature;BME280_humidity;BME280_pressure;Samples;Min_cycle;Max_cycle;Signal;HPM_P1;HPM_P2
2022/12/16 00:00:27;;;;;;;40.47;22.53;;;;;;;;;;5009708;28;20212;-67
2022/12/16 00:02:53;;;;;;;40.13;21.93;;;;;;;;;;5015526;28;20248;-67
2022/12/16 00:05:19;;;;;;;38.10;23.17;;;;;;;;;;5015016;28;20610;-67
2022/12/16 00:07:46;;;;;;;35.80;22.43;;;;;;;;;;5015174;28;20225;-67
2022/12/16 00:10:11;;;;;;;33.93;21.27;;;;;;;;;;5015152;28;20307;-66
2022/12/16 00:12:36;;;;;;;35.47;20.50;;;;;;;;;;5015981;28;20299;-67
2022/12/16 00:15:02;;;;;;;34.67;21.07;;;;;;;;;;5013433;28;20287;-66
2022/12/16 00:17:27;;;;;;;37.37;21.97;;;;;;;;;;4995911;28;20676;-67
2022/12/16 00:19:52;;;;;;;31.63;20.07;;;;;;;;;;4995996;28;20237;-67
2022/12/16 00:22:17;;;;;;;29.67;17.57;;;;;;;;;;4994657;28;20304;-67
2022/12/16 00:24:43;;;;;;;33.03;18.47;;;;;;;;;;4996118;28;20599;-67
2022/12/16 00:27:08;;;;;;;47.23;26.00;;;;;;;;;;4995477;28;20209;-67
2022/12/16 00:29:33;;;;;;;40.27;22.10;;;;;;;;;;4995215;28;20287;-67
2022/12/16 00:31:59;;;;;;;33.67;19.80;;;;;;;;;;4995722;28;20225;-67
2022/12/16 00:34:24;;;;;;;35.30;19.73;;;;;;;;;;4994768;28;20296;-67
2022/12/16 00:36:49;;;;;;;31.93;18.63;;;;;;;;;;4995218;28;20316;-67
2022/12/16 00:39:14;;;;;;;34.43;19.90;;;;;;;;;;4995335;28;20213;-67
2022/12/16 00:41:40;;;;;;;32.93;20.43;;;;;;;;;;4995042;28;20221;-67
2022/12/16 00:44:05;;;;;;;38.70;22.00;;;;;;;;;;4994753;28;20221;-67
2022/12/16 00:46:30;;;;;;;34.27;20.33;;;;;;;;;;4995802;28;20226;-67
2022/12/16 00:48:56;;;;;;;32.90;20.40;;;;;;;;;;4994968;28;20231;-67
2022/12/16 00:51:21;;;;;;;34.97;20.40;;;;;;;;;;4994570;28;20744;-67
2022/12/16 00:53:46;;;;;;;36.27;20.97;;;;;;;;;;4995176;28;20584;-67
2022/12/16 00:56:13;;;;;;;29.73;19.93;;;;;;;;;;5000893;28;20251;-66
2022/12/16 00:58:38;;;;;;;34.40;20.83;;;;;;;;;;5013633;28;20240;-67
2022/12/16 01:01:04;;;;;;;34.60;20.13;;;;;;;;;;4995578;28;20311;-66
2022/12/16 01:03:29;;;;;;;34.13;20.10;;;;;;;;;;4994356;28;20221;-67
2022/12/16 01:05:54;;;;;;;31.13;20.30;;;;;;;;;;4994539;28;20244;-67
2022/12/16 01:08:19;;;;;;;36.40;20.87;;;;;;;;;;4994654;28;20221;-67
2022/12/16 01:10:50;;;;;;;33.13;19.40;;;;;;;;;;4994551;28;20220;-67
2022/12/16 01:13:15;;;;;;;35.93;19.40;;;;;;;;;;4994410;28;20213;-65
2022/12/16 01:15:40;;;;;;;32.00;18.73;;;;;;;;;;4992424;28;22208;-67
2022/12/16 01:18:05;;;;;;;33.80;19.43;;;;;;;;;;4985001;28;20228;-67
2022/12/16 01:20:31;;;;;;;31.00;18.83;;;;;;;;;;4985616;28;20263;-69
2022/12/16 01:22:56;;;;;;;31.20;19.17;;;;;;;;;;4984750;28;20236;-67
2022/12/16 01:25:22;;;;;;;31.33;19.37;;;;;;;;;;4984315;28;20221;-67
2022/12/16 01:27:47;;;;;;;34.63;20.17;;;;;;;;;;4981940;28;20209;-68
2022/12/16 01:30:12;;;;;;;36.33;20.03;;;;;;;;;;4978136;28;20559;-67
2022/12/16 01:32:38;;;;;;;31.63;19.00;;;;;;;;;;4970759;28;20213;-67
2022/12/16 01:35:03;;;;;;;32.10;20.07;;;;;;;;;;4979520;28;20644;-67
2022/12/16 01:37:28;;;;;;;31.23;19.07;;;;;;;;;;4984580;28;20575;-68
2022/12/16 01:39:54;;;;;;;34.27;20.47;;;;;;;;;;4984555;28;20240;-68
2022/12/16 01:42:20;;;;;;;32.03;19.63;;;;;;;;;;5003491;28;20929;-67
2022/12/16 01:44:46;;;;;;;33.47;19.03;;;;;;;;;;5002966;28;20208;-68
2022/12/16 01:47:13;;;;;;;33.57;19.77;;;;;;;;;;5003802;28;20280;-67
2022/12/16 01:49:40;;;;;;;32.80;19.57;;;;;;;;;;4997425;28;20699;-67
2022/12/16 01:52:06;;;;;;;36.37;20.57;;;;;;;;;;4993999;28;20212;-68
2022/12/16 01:54:34;;;;;;;32.10;19.30;;;;;;;;;;4994500;28;20212;-68
2022/12/16 01:57:00;;;;;;;33.80;20.33;;;;;;;;;;4982611;28;20308;-67
2022/12/16 01:59:26;;;;;;;32.23;18.67;;;;;;;;;;4984091;28;20299;-68
2022/12/16 02:01:51;;;;;;;32.33;19.07;;;;;;;;;;5002213;28;20219;-68
2022/12/16 02:04:16;;;;;;;32.00;19.33;;;;;;;;;;5003037;28;20224;-67
2022/12/16 02:06:41;;;;;;;33.10;20.73;;;;;;;;;;5002553;28;20213;-68
2022/12/16 02:09:07;;;;;;;34.40;19.60;;;;;;;;;;5003157;28;20228;-67
2022/12/16 02:11:41;;;;;;;32.63;19.53;;;;;;;;;;5004074;28;21297;-67
2022/12/16 02:14:13;;;;;;;32.97;20.00;;;;;;;;;;4994962;28;20290;-67
2022/12/16 02:16:44;;;;;;;30.67;19.13;;;;;;;;;;4989681;28;20205;-67
2022/12/16 02:19:32;;;;;;;35.10;20.33;;;;;;;;;;5009053;28;20294;-67
2022/12/16 02:22:02;;;;;;;33.37;19.77;;;;;;;;;;5011355;28;20277;-67
2022/12/16 02:24:45;;;;;;;30.97;19.37;;;;;;;;;;5007643;28;20220;-67
2022/12/16 02:27:10;;;;;;;36.30;20.20;;;;;;;;;;4991520;28;20213;-67
2022/12/16 02:29:45;;;;;;;33.00;19.90;;;;;;;;;;4993736;28;20213;-68
2022/12/16 02:32:14;;;;;;;33.43;20.40;;;;;;;;;;4991958;28;20259;-67
2022/12/16 02:34:43;;;;;;;31.97;19.33;;;;;;;;;;4991848;28;20217;-67
2022/12/16 02:37:09;;;;;;;30.00;18.83;;;;;;;;;;4991718;28;20217;-67
2022/12/16 02:39:37;;;;;;;35.80;21.60;;;;;;;;;;4993300;28;20209;-68
2022/12/16 02:42:11;;;;;;;32.93;20.03;;;;;;;;;;4992419;28;20217;-67
2022/12/16 02:44:44;;;;;;;34.27;20.33;;;;;;;;;;4992109;28;20215;-67
2022/12/16 02:47:09;;;;;;;35.17;21.67;;;;;;;;;;4993055;28;20359;-68
2022/12/16 02:49:40;;;;;;;32.33;20.67;;;;;;;;;;4992851;28;20673;-68
2022/12/16 02:52:05;;;;;;;32.80;19.77;;;;;;;;;;4992200;28;20217;-67
2022/12/16 02:54:31;;;;;;;36.33;20.57;;;;;;;;;;5012689;28;20269;-68
2022/12/16 02:57:10;;;;;;;32.50;20.17;;;;;;;;;;4997312;28;20691;-66
2022/12/16 02:59:39;;;;;;;33.13;20.83;;;;;;;;;;4972675;28;20398;-67
2022/12/16 03:02:08;;;;;;;35.93;20.53;;;;;;;;;;4975611;28;20304;-66
2022/12/16 03:04:36;;;;;;;33.87;19.93;;;;;;;;;;5004700;28;20225;-67
2022/12/16 03:07:01;;;;;;;33.50;20.63;;;;;;;;;;4991475;28;20227;-66
2022/12/16 03:09:28;;;;;;;34.07;21.00;;;;;;;;;;4964767;28;20213;-66
2022/12/16 03:11:53;;;;;;;33.10;20.03;;;;;;;;;;4981424;28;20225;-67
2022/12/16 03:14:19;;;;;;;34.50;20.53;;;;;;;;;;4982788;28;20340;-67
2022/12/16 03:16:44;;;;;;;32.63;20.10;;;;;;;;;;4978445;28;20292;-67
2022/12/16 03:19:10;;;;;;;33.37;20.10;;;;;;;;;;4976407;28;20225;-66
2022/12/16 03:21:45;;;;;;;32.10;20.00;;;;;;;;;;4979399;28;21137;-67
2022/12/16 03:24:12;;;;;;;32.97;20.20;;;;;;;;;;4976967;28;20700;-66
2022/12/16 03:26:41;;;;;;;33.00;20.67;;;;;;;;;;4985309;28;20225;-67
2022/12/16 03:29:08;;;;;;;35.30;20.87;;;;;;;;;;4986521;28;20316;-66
2022/12/16 03:31:33;;;;;;;36.50;20.93;;;;;;;;;;4985294;28;20205;-67
2022/12/16 03:34:03;;;;;;;32.97;21.67;;;;;;;;;;4976786;28;20723;-67
2022/12/16 03:36:29;;;;;;;32.07;19.87;;;;;;;;;;5004926;28;20245;-67
2022/12/16 03:38:54;;;;;;;33.47;20.70;;;;;;;;;;5004735;28;20254;-67
2022/12/16 03:41:20;;;;;;;33.80;21.47;;;;;;;;;;4997539;28;20303;-67
2022/12/16 03:43:47;;;;;;;34.33;21.13;;;;;;;;;;4975031;28;20240;-67
2022/12/16 03:46:12;;;;;;;37.60;20.50;;;;;;;;;;4996600;28;20493;-67
2022/12/16 03:48:43;;;;;;;38.47;21.43;;;;;;;;;;4999728;28;20647;-67
2022/12/16 03:51:09;;;;;;;33.90;20.67;;;;;;;;;;5005735;28;20223;-66
2022/12/16 03:53:34;;;;;;;34.97;21.37;;;;;;;;;;4988758;28;20217;-67
2022/12/16 03:55:59;;;;;;;39.83;22.63;;;;;;;;;;4986931;28;20754;-67
2022/12/16 03:58:24;;;;;;;44.00;22.37;;;;;;;;;;4986096;28;20220;-67
2022/12/16 04:00:50;;;;;;;46.90;25.10;;;;;;;;;;4986658;28;20221;-67
2022/12/16 04:03:15;;;;;;;43.63;23.37;;;;;;;;;;4982877;28;20753;-67
2022/12/16 04:05:40;;;;;;;47.00;23.97;;;;;;;;;;4978140;28;20225;-67
2022/12/16 04:08:06;;;;;;;43.53;23.57;;;;;;;;;;4978080;28;20240;-67
2022/12/16 04:24:18;;;;;;;51.90;24.73;;;;;;;;;;4996399;28;20231;-67
2022/12/16 04:29:28;;;;;;;56.47;24.83;;;;;;;;;;4984179;28;20213;-67
2022/12/16 04:31:53;;;;;;;50.30;25.60;;;;;;;;;;4978053;28;20209;-67
2022/12/16 04:34:25;;;;;;;43.93;23.83;;;;;;;;;;4984449;28;20217;-67
